North Bay Airport
CYYB : now visible

Airfield :











YOU CAN JOIN US ON...

 
LOGIN :

Register | Disclaimer

   EN    FR    IT 

 









Legend :    VFR   Marginal VFR   IFR   Intensive IFR   Very Intensive IFR
Visi :
Ceiling :
>= 8 km
>= 3000ft
5 to 8 km
1000 to 3000 ft
1500m to 5 km
500 to 1000 ft
800 to 1500m
200 to 500 ft
< 800m
< 200 ft
Symbols :   Thunderstorms  Fog  Heavy snow  Heavy precipitations  Wind > 20 kt






- Airport Elevation : 1215 ft
- IATA code : YYB


CYYB - North Bay

CURRENT METAR :
  • 221300Z 33010KT 6SM -RADZ BR BKN004 OVC018 07/06 A3003 RMK SF6SC2 PRESRR SLP177

EXPIRED METARs :
  • 221254Z 33010KT 6SM -RADZ BR BKN005 OVC018 07/06 A3000 RMK SF5SC3 SLP169
  • 221200Z 35009KT 15SM -RA SCT020 OVC045 07/06 A2999 RMK SC4SC4 SLP163
  • 221100Z 01010KT 30SM -RA FEW012 OVC050 08/06 A2996 RMK SF1SC7 SLP153
  • 221027Z AUTO 35009KT 9SM -RA OVC055 08/06 A2996 RMK SLP157

TAF AMD TAF CYYB
Valid from the 22 at 13:00 until the 22 at 20:00 UTC


221303Z 2213/2220 33010KT 5SM -RA -DZ BR BKN004 OVC020
TEMPO 2213/2216 P6SM -RA SCT004 OVC020
FM221600 30007KT 5SM -RA BR BKN008 OVC015
TEMPO 2216/2218 P6SM -RA SCT015 OVC025
FM221800 31012KT P6SM OVC025
TEMPO 2218/2220 5SM -SHRA BR RMK FCST BASED ON AUTO OBS. NXT FCST BY 221400Z
CZYZ FIR / North America



MET'MAP, your aeronautical weather chart ! - Copyright ORBIFLY December 2007 - Disclaimer

ORBIFLY MET'MAP TEAM :

Programming & Development : Alexandra Zaïnal
Original concept : Baudouin d'Aumeries
Technical & hardware support : Manuel Goepfert
Assistance : Marc-Olivier Méhu

Contact : metmap@orbifly.com




SOURCES & CREDITS :

   NOAA       Earth
Advisory